sensor_id;sensor_type;location;lat;lon;timestamp;temperature;humidity
17687;DHT22;8962;52.538;13.266;2023-05-10T00:01:19;13.20;99.90
17687;DHT22;8962;52.538;13.266;2023-05-10T00:03:46;13.10;99.90
17687;DHT22;8962;52.538;13.266;2023-05-10T00:06:13;13.10;99.90
17687;DHT22;8962;52.538;13.266;2023-05-10T00:08:40;13.10;99.90
17687;DHT22;8962;52.538;13.266;2023-05-10T00:11:07;13.10;99.90
17687;DHT22;8962;52.538;13.266;2023-05-10T00:13:34;13.00;99.90
17687;DHT22;8962;52.538;13.266;2023-05-10T00:16:03;13.00;99.90
17687;DHT22;8962;52.538;13.266;2023-05-10T00:18:30;13.00;99.90
17687;DHT22;8962;52.538;13.266;2023-05-10T00:20:58;13.00;99.90
17687;DHT22;8962;52.538;13.266;2023-05-10T00:23:25;13.00;99.90
17687;DHT22;8962;52.538;13.266;2023-05-10T00:25:52;12.90;99.90
17687;DHT22;8962;52.538;13.266;2023-05-10T00:28:19;13.00;99.90
17687;DHT22;8962;52.538;13.266;2023-05-10T00:30:46;12.90;99.90
17687;DHT22;8962;52.538;13.266;2023-05-10T00:33:15;12.90;99.90
17687;DHT22;8962;52.538;13.266;2023-05-10T00:35:42;12.90;99.90
17687;DHT22;8962;52.538;13.266;2023-05-10T00:38:09;12.80;99.90
17687;DHT22;8962;52.538;13.266;2023-05-10T00:40:36;12.80;99.90
17687;DHT22;8962;52.538;13.266;2023-05-10T00:43:09;12.80;99.90
17687;DHT22;8962;52.538;13.266;2023-05-10T00:45:37;12.80;99.90
17687;DHT22;8962;52.538;13.266;2023-05-10T00:48:04;12.80;99.90
17687;DHT22;8962;52.538;13.266;2023-05-10T00:50:35;12.80;99.90
17687;DHT22;8962;52.538;13.266;2023-05-10T00:53:02;12.70;99.90
17687;DHT22;8962;52.538;13.266;2023-05-10T00:55:31;12.70;99.90
17687;DHT22;8962;52.538;13.266;2023-05-10T00:57:58;12.70;99.90
17687;DHT22;8962;52.538;13.266;2023-05-10T01:00:25;12.60;99.90
17687;DHT22;8962;52.538;13.266;2023-05-10T01:02:53;12.50;99.90
17687;DHT22;8962;52.538;13.266;2023-05-10T01:05:22;12.50;99.90
17687;DHT22;8962;52.538;13.266;2023-05-10T01:07:54;12.40;99.90
17687;DHT22;8962;52.538;13.266;2023-05-10T01:10:22;12.40;99.90
17687;DHT22;8962;52.538;13.266;2023-05-10T01:12:50;12.40;99.90
17687;DHT22;8962;52.538;13.266;2023-05-10T01:15:18;12.30;99.90
17687;DHT22;8962;52.538;13.266;2023-05-10T01:17:47;12.30;99.90
17687;DHT22;8962;52.538;13.266;2023-05-10T01:20:15;12.20;99.90
17687;DHT22;8962;52.538;13.266;2023-05-10T01:23:14;12.20;99.90
17687;DHT22;8962;52.538;13.266;2023-05-10T01:29:33;12.10;99.90
17687;DHT22;8962;52.538;13.266;2023-05-10T01:32:21;12.10;99.90
17687;DHT22;8962;52.538;13.266;2023-05-10T01:34:57;12.10;99.90
17687;DHT22;8962;52.538;13.266;2023-05-10T01:37:33;12.10;99.90
17687;DHT22;8962;52.538;13.266;2023-05-10T01:40:13;12.00;99.90
17687;DHT22;8962;52.538;13.266;2023-05-10T01:42:54;12.00;99.90
17687;DHT22;8962;52.538;13.266;2023-05-10T01:45:27;11.90;99.90
17687;DHT22;8962;52.538;13.266;2023-05-10T01:48:05;11.90;99.90
17687;DHT22;8962;52.538;13.266;2023-05-10T01:50:35;11.90;99.90
17687;DHT22;8962;52.538;13.266;2023-05-10T01:53:07;11.90;99.90
17687;DHT22;8962;52.538;13.266;2023-05-10T01:55:43;11.90;99.90
17687;DHT22;8962;52.538;13.266;2023-05-10T01:58:15;11.80;99.90
17687;DHT22;8962;52.538;13.266;2023-05-10T02:00:45;11.80;99.90
17687;DHT22;8962;52.538;13.266;2023-05-10T02:03:15;11.70;99.90
17687;DHT22;8962;52.538;13.266;2023-05-10T02:05:43;11.70;99.90
17687;DHT22;8962;52.538;13.266;2023-05-10T02:08:13;11.70;99.90
17687;DHT22;8962;52.538;13.266;2023-05-10T02:10:45;11.60;99.90
17687;DHT22;8962;52.538;13.266;2023-05-10T02:13:13;11.60;99.90
17687;DHT22;8962;52.538;13.266;2023-05-10T02:15:43;11.50;99.90
17687;DHT22;8962;52.538;13.266;2023-05-10T02:18:16;11.50;99.90
17687;DHT22;8962;52.538;13.266;2023-05-10T02:20:45;11.50;99.90
17687;DHT22;8962;52.538;13.266;2023-05-10T02:23:17;11.40;99.90
17687;DHT22;8962;52.538;13.266;2023-05-10T02:25:46;11.40;99.90
17687;DHT22;8962;52.538;13.266;2023-05-10T02:28:14;11.40;99.90
17687;DHT22;8962;52.538;13.266;2023-05-10T02:30:43;11.40;99.90
17687;DHT22;8962;52.538;13.266;2023-05-10T02:33:11;11.30;99.90
17687;DHT22;8962;52.538;13.266;2023-05-10T02:35:41;11.30;99.90
17687;DHT22;8962;52.538;13.266;2023-05-10T02:38:09;11.30;99.90
17687;DHT22;8962;52.538;13.266;2023-05-10T02:40:39;11.30;99.90
17687;DHT22;8962;52.538;13.266;2023-05-10T02:43:10;11.30;99.90
17687;DHT22;8962;52.538;13.266;2023-05-10T02:45:40;11.30;99.90
17687;DHT22;8962;52.538;13.266;2023-05-10T02:48:09;11.20;99.90
17687;DHT22;8962;52.538;13.266;2023-05-10T02:50:37;11.20;99.90
17687;DHT22;8962;52.538;13.266;2023-05-10T02:55:41;11.20;99.90
17687;DHT22;8962;52.538;13.266;2023-05-10T02:58:09;11.10;99.90
17687;DHT22;8962;52.538;13.266;2023-05-10T03:00:36;11.10;99.90
17687;DHT22;8962;52.538;13.266;2023-05-10T03:03:03;11.10;99.90
17687;DHT22;8962;52.538;13.266;2023-05-10T03:05:30;11.10;99.90
17687;DHT22;8962;52.538;13.266;2023-05-10T03:08:01;11.10;99.90
17687;DHT22;8962;52.538;13.266;2023-05-10T03:10:31;11.10;99.90
17687;DHT22;8962;52.538;13.266;2023-05-10T03:13:28;11.10;99.90
17687;DHT22;8962;52.538;13.266;2023-05-10T03:18:44;11.00;99.90
17687;DHT22;8962;52.538;13.266;2023-05-10T03:21:18;10.90;99.90
17687;DHT22;8962;52.538;13.266;2023-05-10T03:23:51;10.90;99.90
17687;DHT22;8962;52.538;13.266;2023-05-10T03:26:24;10.90;99.90
17687;DHT22;8962;52.538;13.266;2023-05-10T03:29:00;10.90;99.90
17687;DHT22;8962;52.538;13.266;2023-05-10T03:31:28;10.90;99.90
17687;DHT22;8962;52.538;13.266;2023-05-10T03:33:55;10.90;99.90
17687;DHT22;8962;52.538;13.266;2023-05-10T03:36:26;10.90;99.90
17687;DHT22;8962;52.538;13.266;2023-05-10T03:38:54;10.90;99.90
17687;DHT22;8962;52.538;13.266;2023-05-10T03:41:21;11.00;99.90
17687;DHT22;8962;52.538;13.266;2023-05-10T03:43:49;11.00;99.90
17687;DHT22;8962;52.538;13.266;2023-05-10T03:46:17;10.90;99.90
17687;DHT22;8962;52.538;13.266;2023-05-10T03:48:45;10.90;99.90
17687;DHT22;8962;52.538;13.266;2023-05-10T03:51:12;10.90;99.90
17687;DHT22;8962;52.538;13.266;2023-05-10T03:53:40;10.90;99.90
17687;DHT22;8962;52.538;13.266;2023-05-10T03:56:07;11.00;99.90
17687;DHT22;8962;52.538;13.266;2023-05-10T03:58:35;11.00;99.90
17687;DHT22;8962;52.538;13.266;2023-05-10T04:01:03;10.90;99.90
17687;DHT22;8962;52.538;13.266;2023-05-10T04:03:31;11.00;99.90
17687;DHT22;8962;52.538;13.266;2023-05-10T04:06:01;11.00;99.90
17687;DHT22;8962;52.538;13.266;2023-05-10T04:08:28;11.00;99.90
17687;DHT22;8962;52.538;13.266;2023-05-10T04:11:05;11.00;99.90
17687;DHT22;8962;52.538;13.266;2023-05-10T04:13:32;11.10;99.90
17687;DHT22;8962;52.538;13.266;2023-05-10T04:15:59;11.10;99.90
17687;DHT22;8962;52.538;13.266;2023-05-10T04:18:26;11.10;99.90
17687;DHT22;8962;52.538;13.266;2023-05-10T04:20:55;11.10;99.90
17687;DHT22;8962;52.538;13.266;2023-05-10T04:23:23;11.10;99.90
17687;DHT22;8962;52.538;13.266;2023-05-10T04:25:50;11.20;99.90
17687;DHT22;8962;52.538;13.266;2023-05-10T04:28:17;11.20;99.90
17687;DHT22;8962;52.538;13.266;2023-05-10T04:30:44;11.20;99.90
17687;DHT22;8962;52.538;13.266;2023-05-10T04:33:11;11.30;99.90
17687;DHT22;8962;52.538;13.266;2023-05-10T04:35:40;11.30;99.90
17687;DHT22;8962;52.538;13.266;2023-05-10T04:38:08;11.40;99.90
17687;DHT22;8962;52.538;13.266;2023-05-10T04:40:36;11.40;99.90
17687;DHT22;8962;52.538;13.266;2023-05-10T04:43:03;11.50;99.90
17687;DHT22;8962;52.538;13.266;2023-05-10T04:45:30;11.50;99.90
17687;DHT22;8962;52.538;13.266;2023-05-10T04:47:58;11.50;99.90
17687;DHT22;8962;52.538;13.266;2023-05-10T04:50:25;11.60;99.90
17687;DHT22;8962;52.538;13.266;2023-05-10T04:52:52;11.60;99.90
17687;DHT22;8962;52.538;13.266;2023-05-10T04:55:22;11.60;99.90
17687;DHT22;8962;52.538;13.266;2023-05-10T04:57:50;11.70;99.90
17687;DHT22;8962;52.538;13.266;2023-05-10T05:00:18;11.80;99.90
17687;DHT22;8962;52.538;13.266;2023-05-10T05:02:45;11.90;99.90
17687;DHT22;8962;52.538;13.266;2023-05-10T05:05:13;12.00;99.90
17687;DHT22;8962;52.538;13.266;2023-05-10T05:07:40;12.00;99.90
17687;DHT22;8962;52.538;13.266;2023-05-10T05:10:08;12.10;99.90
17687;DHT22;8962;52.538;13.266;2023-05-10T05:12:37;12.20;99.90
17687;DHT22;8962;52.538;13.266;2023-05-10T05:15:05;12.20;99.90
17687;DHT22;8962;52.538;13.266;2023-05-10T05:17:33;12.30;99.90
17687;DHT22;8962;52.538;13.266;2023-05-10T05:20:01;12.30;99.90
17687;DHT22;8962;52.538;13.266;2023-05-10T05:22:28;12.40;99.90
17687;DHT22;8962;52.538;13.266;2023-05-10T05:24:56;12.60;99.90
17687;DHT22;8962;52.538;13.266;2023-05-10T05:27:24;12.60;99.90
17687;DHT22;8962;52.538;13.266;2023-05-10T05:29:55;12.70;99.90
17687;DHT22;8962;52.538;13.266;2023-05-10T05:32:23;12.70;99.90
17687;DHT22;8962;52.538;13.266;2023-05-10T05:34:51;12.80;99.90
17687;DHT22;8962;52.538;13.266;2023-05-10T05:37:19;12.90;99.90
17687;DHT22;8962;52.538;13.266;2023-05-10T05:39:47;13.00;99.90
17687;DHT22;8962;52.538;13.266;2023-05-10T05:42:14;13.10;99.90
17687;DHT22;8962;52.538;13.266;2023-05-10T05:44:43;13.20;99.90
17687;DHT22;8962;52.538;13.266;2023-05-10T05:47:11;13.20;99.90
17687;DHT22;8962;52.538;13.266;2023-05-10T05:49:38;13.30;99.90
17687;DHT22;8962;52.538;13.266;2023-05-10T05:52:06;13.40;99.90
17687;DHT22;8962;52.538;13.266;2023-05-10T05:54:34;13.40;99.90
17687;DHT22;8962;52.538;13.266;2023-05-10T05:57:01;13.60;99.90
17687;DHT22;8962;52.538;13.266;2023-05-10T05:59:29;13.70;99.90
17687;DHT22;8962;52.538;13.266;2023-05-10T06:01:57;13.70;99.90
17687;DHT22;8962;52.538;13.266;2023-05-10T06:04:25;13.80;99.90
17687;DHT22;8962;52.538;13.266;2023-05-10T06:06:52;13.80;99.90
17687;DHT22;8962;52.538;13.266;2023-05-10T06:09:20;13.90;99.90
17687;DHT22;8962;52.538;13.266;2023-05-10T06:11:49;14.00;99.90
17687;DHT22;8962;52.538;13.266;2023-05-10T06:14:16;14.00;99.90
17687;DHT22;8962;52.538;13.266;2023-05-10T06:16:43;14.00;99.90
17687;DHT22;8962;52.538;13.266;2023-05-10T06:19:10;14.10;99.90
17687;DHT22;8962;52.538;13.266;2023-05-10T06:21:41;14.20;99.90
17687;DHT22;8962;52.538;13.266;2023-05-10T06:24:08;14.30;99.90
17687;DHT22;8962;52.538;13.266;2023-05-10T06:26:35;14.50;99.90
17687;DHT22;8962;52.538;13.266;2023-05-10T06:29:03;14.60;99.90
17687;DHT22;8962;52.538;13.266;2023-05-10T06:31:30;14.70;99.90
17687;DHT22;8962;52.538;13.266;2023-05-10T06:33:57;14.80;99.90
17687;DHT22;8962;52.538;13.266;2023-05-10T06:36:26;14.80;99.90
17687;DHT22;8962;52.538;13.266;2023-05-10T06:38:55;14.90;99.90
17687;DHT22;8962;52.538;13.266;2023-05-10T06:41:22;15.00;99.90
17687;DHT22;8962;52.538;13.266;2023-05-10T06:43:50;15.10;99.90
17687;DHT22;8962;52.538;13.266;2023-05-10T06:46:17;15.20;99.90
17687;DHT22;8962;52.538;13.266;2023-05-10T06:48:44;15.40;99.90
17687;DHT22;8962;52.538;13.266;2023-05-10T06:51:11;15.50;99.90
17687;DHT22;8962;52.538;13.266;2023-05-10T06:53:39;15.70;99.90
17687;DHT22;8962;52.538;13.266;2023-05-10T06:56:07;15.80;99.90
17687;DHT22;8962;52.538;13.266;2023-05-10T06:58:34;15.80;99.90
17687;DHT22;8962;52.538;13.266;2023-05-10T07:01:02;16.00;99.90
17687;DHT22;8962;52.538;13.266;2023-05-10T07:03:30;16.10;99.90
17687;DHT22;8962;52.538;13.266;2023-05-10T07:06:01;16.30;99.90
17687;DHT22;8962;52.538;13.266;2023-05-10T07:08:30;16.30;99.90
17687;DHT22;8962;52.538;13.266;2023-05-10T07:11:01;16.30;99.90
17687;DHT22;8962;52.538;13.266;2023-05-10T07:13:31;16.30;99.90
17687;DHT22;8962;52.538;13.266;2023-05-10T07:15:58;16.40;99.90
17687;DHT22;8962;52.538;13.266;2023-05-10T07:18:26;16.60;99.90
17687;DHT22;8962;52.538;13.266;2023-05-10T07:20:53;16.70;99.90
17687;DHT22;8962;52.538;13.266;2023-05-10T07:23:20;16.80;99.90
17687;DHT22;8962;52.538;13.266;2023-05-10T07:25:48;16.90;99.90
17687;DHT22;8962;52.538;13.266;2023-05-10T07:28:17;16.90;99.90
17687;DHT22;8962;52.538;13.266;2023-05-10T07:30:46;16.90;99.90
17687;DHT22;8962;52.538;13.266;2023-05-10T07:33:14;17.00;99.90
17687;DHT22;8962;52.538;13.266;2023-05-10T07:35:41;17.20;99.90
17687;DHT22;8962;52.538;13.266;2023-05-10T07:38:09;17.20;99.90
17687;DHT22;8962;52.538;13.266;2023-05-10T07:40:36;17.20;99.90
17687;DHT22;8962;52.538;13.266;2023-05-10T07:43:04;17.30;99.90
17687;DHT22;8962;52.538;13.266;2023-05-10T07:45:32;17.50;99.90
17687;DHT22;8962;52.538;13.266;2023-05-10T07:48:04;17.60;99.90
17687;DHT22;8962;52.538;13.266;2023-05-10T07:50:31;17.60;99.90
17687;DHT22;8962;52.538;13.266;2023-05-10T07:52:59;17.90;99.90
17687;DHT22;8962;52.538;13.266;2023-05-10T07:55:28;18.10;99.90
17687;DHT22;8962;52.538;13.266;2023-05-10T07:57:55;18.20;99.90
17687;DHT22;8962;52.538;13.266;2023-05-10T08:00:22;18.10;99.90
17687;DHT22;8962;52.538;13.266;2023-05-10T08:02:51;18.30;99.90
17687;DHT22;8962;52.538;13.266;2023-05-10T08:05:20;18.50;99.90
17687;DHT22;8962;52.538;13.266;2023-05-10T08:07:47;18.60;99.90
17687;DHT22;8962;52.538;13.266;2023-05-10T08:10:14;18.50;99.90
17687;DHT22;8962;52.538;13.266;2023-05-10T08:12:42;18.50;99.90
17687;DHT22;8962;52.538;13.266;2023-05-10T08:15:10;18.70;99.90
17687;DHT22;8962;52.538;13.266;2023-05-10T08:17:37;18.90;99.90
17687;DHT22;8962;52.538;13.266;2023-05-10T08:20:05;19.10;99.90
17687;DHT22;8962;52.538;13.266;2023-05-10T08:22:35;19.30;99.90
17687;DHT22;8962;52.538;13.266;2023-05-10T08:25:03;19.30;99.90
17687;DHT22;8962;52.538;13.266;2023-05-10T08:27:30;19.60;99.90
17687;DHT22;8962;52.538;13.266;2023-05-10T08:29:57;19.50;99.90
17687;DHT22;8962;52.538;13.266;2023-05-10T08:32:25;19.40;99.90
17687;DHT22;8962;52.538;13.266;2023-05-10T08:34:52;19.60;99.90
17687;DHT22;8962;52.538;13.266;2023-05-10T08:37:19;19.80;99.90
17687;DHT22;8962;52.538;13.266;2023-05-10T08:39:47;19.80;99.90
17687;DHT22;8962;52.538;13.266;2023-05-10T08:42:19;19.90;99.90
17687;DHT22;8962;52.538;13.266;2023-05-10T08:44:48;20.00;99.40
17687;DHT22;8962;52.538;13.266;2023-05-10T08:47:16;20.00;98.90
17687;DHT22;8962;52.538;13.266;2023-05-10T08:49:47;19.80;98.60
17687;DHT22;8962;52.538;13.266;2023-05-10T08:52:17;19.50;99.40
17687;DHT22;8962;52.538;13.266;2023-05-10T08:54:47;19.70;99.30
17687;DHT22;8962;52.538;13.266;2023-05-10T08:57:14;19.90;99.20
17687;DHT22;8962;52.538;13.266;2023-05-10T08:59:41;19.80;99.10
17687;DHT22;8962;52.538;13.266;2023-05-10T09:02:10;19.90;99.20
17687;DHT22;8962;52.538;13.266;2023-05-10T09:04:38;20.00;98.70
17687;DHT22;8962;52.538;13.266;2023-05-10T09:07:06;20.20;98.30
17687;DHT22;8962;52.538;13.266;2023-05-10T09:09:34;20.30;98.10
17687;DHT22;8962;52.538;13.266;2023-05-10T09:12:03;20.40;98.20
17687;DHT22;8962;52.538;13.266;2023-05-10T09:14:30;20.40;97.70
17687;DHT22;8962;52.538;13.266;2023-05-10T09:16:59;20.40;97.60
17687;DHT22;8962;52.538;13.266;2023-05-10T09:19:27;20.50;97.50
17687;DHT22;8962;52.538;13.266;2023-05-10T09:21:54;20.60;97.40
17687;DHT22;8962;52.538;13.266;2023-05-10T09:24:25;20.70;96.90
17687;DHT22;8962;52.538;13.266;2023-05-10T09:26:52;20.70;96.90
17687;DHT22;8962;52.538;13.266;2023-05-10T09:29:21;20.80;97.30
17687;DHT22;8962;52.538;13.266;2023-05-10T09:31:49;21.00;97.10
17687;DHT22;8962;52.538;13.266;2023-05-10T09:34:18;21.20;96.80
17687;DHT22;8962;52.538;13.266;2023-05-10T09:36:53;21.10;95.90
17687;DHT22;8962;52.538;13.266;2023-05-10T09:39:30;20.90;95.70
17687;DHT22;8962;52.538;13.266;2023-05-10T09:41:58;20.90;96.00
17687;DHT22;8962;52.538;13.266;2023-05-10T09:44:27;20.80;96.70
17687;DHT22;8962;52.538;13.266;2023-05-10T09:46:55;21.00;96.00
17687;DHT22;8962;52.538;13.266;2023-05-10T09:49:22;20.90;95.60
17687;DHT22;8962;52.538;13.266;2023-05-10T09:52:00;21.00;96.50
17687;DHT22;8962;52.538;13.266;2023-05-10T09:54:27;21.20;95.90
17687;DHT22;8962;52.538;13.266;2023-05-10T09:56:54;21.30;94.60
17687;DHT22;8962;52.538;13.266;2023-05-10T09:59:21;21.10;94.50
17687;DHT22;8962;52.538;13.266;2023-05-10T10:01:53;21.20;95.00
17687;DHT22;8962;52.538;13.266;2023-05-10T10:04:22;21.20;95.50
17687;DHT22;8962;52.538;13.266;2023-05-10T10:06:59;21.30;94.70
17687;DHT22;8962;52.538;13.266;2023-05-10T10:09:27;21.20;94.10
17687;DHT22;8962;52.538;13.266;2023-05-10T10:11:54;21.30;94.50
17687;DHT22;8962;52.538;13.266;2023-05-10T10:14:22;21.50;95.70
17687;DHT22;8962;52.538;13.266;2023-05-10T10:16:50;21.60;94.20
17687;DHT22;8962;52.538;13.266;2023-05-10T10:19:19;21.60;93.00
17687;DHT22;8962;52.538;13.266;2023-05-10T10:21:46;21.50;93.50
17687;DHT22;8962;52.538;13.266;2023-05-10T10:24:13;21.60;92.60
17687;DHT22;8962;52.538;13.266;2023-05-10T10:26:42;21.60;92.50
17687;DHT22;8962;52.538;13.266;2023-05-10T10:29:19;21.50;92.70
17687;DHT22;8962;52.538;13.266;2023-05-10T10:31:54;21.50;93.90
17687;DHT22;8962;52.538;13.266;2023-05-10T10:34:28;21.70;93.60
17687;DHT22;8962;52.538;13.266;2023-05-10T10:36:57;21.70;92.10
17687;DHT22;8962;52.538;13.266;2023-05-10T10:39:24;21.70;92.10
17687;DHT22;8962;52.538;13.266;2023-05-10T10:41:53;21.70;92.40
17687;DHT22;8962;52.538;13.266;2023-05-10T10:44:34;21.70;92.40
17687;DHT22;8962;52.538;13.266;2023-05-10T10:47:05;21.80;92.30
17687;DHT22;8962;52.538;13.266;2023-05-10T10:49:43;21.80;92.70
17687;DHT22;8962;52.538;13.266;2023-05-10T10:52:23;22.00;92.20
17687;DHT22;8962;52.538;13.266;2023-05-10T10:54:58;22.00;91.10
17687;DHT22;8962;52.538;13.266;2023-05-10T10:57:26;22.00;91.60
17687;DHT22;8962;52.538;13.266;2023-05-10T11:00:23;22.20;92.10
17687;DHT22;8962;52.538;13.266;2023-05-10T11:02:51;22.20;90.80
17687;DHT22;8962;52.538;13.266;2023-05-10T11:05:45;22.10;90.90
17687;DHT22;8962;52.538;13.266;2023-05-10T11:08:15;22.00;90.90
17687;DHT22;8962;52.538;13.266;2023-05-10T11:10:51;22.10;91.10
17687;DHT22;8962;52.538;13.266;2023-05-10T11:13:27;22.30;90.10
17687;DHT22;8962;52.538;13.266;2023-05-10T11:15:56;22.40;89.30
17687;DHT22;8962;52.538;13.266;2023-05-10T11:18:26;22.60;90.80
17687;DHT22;8962;52.538;13.266;2023-05-10T11:20:58;22.90;89.80
17687;DHT22;8962;52.538;13.266;2023-05-10T11:23:30;22.90;88.30
17687;DHT22;8962;52.538;13.266;2023-05-10T11:25:59;22.90;90.00
17687;DHT22;8962;52.538;13.266;2023-05-10T11:28:27;23.20;88.60
17687;DHT22;8962;52.538;13.266;2023-05-10T11:30:54;23.80;85.80
17687;DHT22;8962;52.538;13.266;2023-05-10T11:33:22;25.10;81.60
17687;DHT22;8962;52.538;13.266;2023-05-10T11:35:49;26.20;73.60
17687;DHT22;8962;52.538;13.266;2023-05-10T11:38:18;26.80;69.30
17687;DHT22;8962;52.538;13.266;2023-05-10T11:40:45;27.00;64.80
17687;DHT22;8962;52.538;13.266;2023-05-10T11:43:12;27.70;64.00
17687;DHT22;8962;52.538;13.266;2023-05-10T11:45:40;27.90;59.80
17687;DHT22;8962;52.538;13.266;2023-05-10T11:48:08;27.70;58.10
17687;DHT22;8962;52.538;13.266;2023-05-10T11:50:35;28.10;55.90
17687;DHT22;8962;52.538;13.266;2023-05-10T11:53:03;28.60;52.80
17687;DHT22;8962;52.538;13.266;2023-05-10T11:55:34;28.50;53.10
17687;DHT22;8962;52.538;13.266;2023-05-10T11:58:02;28.50;51.80
17687;DHT22;8962;52.538;13.266;2023-05-10T12:00:30;29.30;47.60
17687;DHT22;8962;52.538;13.266;2023-05-10T12:02:59;29.50;46.50
17687;DHT22;8962;52.538;13.266;2023-05-10T12:05:27;29.90;45.30
17687;DHT22;8962;52.538;13.266;2023-05-10T12:08:10;29.10;44.90
17687;DHT22;8962;52.538;13.266;2023-05-10T12:10:39;29.40;44.50
17687;DHT22;8962;52.538;13.266;2023-05-10T12:13:11;29.60;43.60
17687;DHT22;8962;52.538;13.266;2023-05-10T12:15:38;30.00;43.50
17687;DHT22;8962;52.538;13.266;2023-05-10T12:18:05;30.80;41.20
17687;DHT22;8962;52.538;13.266;2023-05-10T12:20:36;30.50;40.00
17687;DHT22;8962;52.538;13.266;2023-05-10T12:23:03;30.30;41.00
17687;DHT22;8962;52.538;13.266;2023-05-10T12:25:34;30.00;41.80
17687;DHT22;8962;52.538;13.266;2023-05-10T12:28:06;29.70;41.20
17687;DHT22;8962;52.538;13.266;2023-05-10T12:30:34;29.60;42.30
17687;DHT22;8962;52.538;13.266;2023-05-10T12:33:02;29.60;41.00
17687;DHT22;8962;52.538;13.266;2023-05-10T12:35:43;29.60;41.20
17687;DHT22;8962;52.538;13.266;2023-05-10T12:38:28;30.00;40.60
17687;DHT22;8962;52.538;13.266;2023-05-10T12:40:57;30.80;39.10
17687;DHT22;8962;52.538;13.266;2023-05-10T12:43:25;30.90;38.70
17687;DHT22;8962;52.538;13.266;2023-05-10T12:45:53;30.00;39.60
17687;DHT22;8962;52.538;13.266;2023-05-10T12:48:20;29.90;39.50
17687;DHT22;8962;52.538;13.266;2023-05-10T12:50:47;30.40;38.60
17687;DHT22;8962;52.538;13.266;2023-05-10T12:53:15;30.60;38.20
17687;DHT22;8962;52.538;13.266;2023-05-10T12:55:42;30.70;37.70
17687;DHT22;8962;52.538;13.266;2023-05-10T12:58:09;31.50;36.50
17687;DHT22;8962;52.538;13.266;2023-05-10T13:00:38;31.50;36.80
17687;DHT22;8962;52.538;13.266;2023-05-10T13:03:05;31.50;35.10
17687;DHT22;8962;52.538;13.266;2023-05-10T13:05:32;31.60;34.70
17687;DHT22;8962;52.538;13.266;2023-05-10T13:07:59;32.10;33.60
17687;DHT22;8962;52.538;13.266;2023-05-10T13:10:28;31.90;33.10
17687;DHT22;8962;52.538;13.266;2023-05-10T13:12:56;31.90;33.70
17687;DHT22;8962;52.538;13.266;2023-05-10T13:15:24;31.60;34.20
17687;DHT22;8962;52.538;13.266;2023-05-10T13:17:53;31.00;34.60
17687;DHT22;8962;52.538;13.266;2023-05-10T13:20:24;31.30;34.80
17687;DHT22;8962;52.538;13.266;2023-05-10T13:22:51;32.10;33.10
17687;DHT22;8962;52.538;13.266;2023-05-10T13:25:19;32.40;32.50
17687;DHT22;8962;52.538;13.266;2023-05-10T13:27:46;33.20;31.20
17687;DHT22;8962;52.538;13.266;2023-05-10T13:30:13;32.70;31.20
17687;DHT22;8962;52.538;13.266;2023-05-10T13:32:41;32.70;31.70
17687;DHT22;8962;52.538;13.266;2023-05-10T13:35:11;32.60;31.30
17687;DHT22;8962;52.538;13.266;2023-05-10T13:37:38;32.70;31.30
17687;DHT22;8962;52.538;13.266;2023-05-10T13:40:06;32.10;31.20
17687;DHT22;8962;52.538;13.266;2023-05-10T13:42:34;31.40;32.40
17687;DHT22;8962;52.538;13.266;2023-05-10T13:45:01;32.70;31.10
17687;DHT22;8962;52.538;13.266;2023-05-10T13:47:29;32.10;31.60
17687;DHT22;8962;52.538;13.266;2023-05-10T13:49:57;31.90;31.70
17687;DHT22;8962;52.538;13.266;2023-05-10T13:52:26;32.60;31.10
17687;DHT22;8962;52.538;13.266;2023-05-10T13:54:53;32.80;30.00
17687;DHT22;8962;52.538;13.266;2023-05-10T13:57:21;32.70;29.80
17687;DHT22;8962;52.538;13.266;2023-05-10T13:59:50;32.50;30.10
17687;DHT22;8962;52.538;13.266;2023-05-10T14:02:17;32.50;29.80
17687;DHT22;8962;52.538;13.266;2023-05-10T14:04:45;31.30;30.70
17687;DHT22;8962;52.538;13.266;2023-05-10T14:07:12;31.60;31.20
17687;DHT22;8962;52.538;13.266;2023-05-10T14:09:40;32.70;29.90
17687;DHT22;8962;52.538;13.266;2023-05-10T14:12:08;32.10;30.60
17687;DHT22;8962;52.538;13.266;2023-05-10T14:14:35;32.60;29.90
17687;DHT22;8962;52.538;13.266;2023-05-10T14:17:02;32.10;30.20
17687;DHT22;8962;52.538;13.266;2023-05-10T14:19:29;32.40;30.30
17687;DHT22;8962;52.538;13.266;2023-05-10T14:21:58;33.10;29.80
17687;DHT22;8962;52.538;13.266;2023-05-10T14:24:25;33.20;29.00
17687;DHT22;8962;52.538;13.266;2023-05-10T14:26:54;32.00;29.90
17687;DHT22;8962;52.538;13.266;2023-05-10T14:29:21;31.70;29.90
17687;DHT22;8962;52.538;13.266;2023-05-10T14:31:50;31.10;30.10
17687;DHT22;8962;52.538;13.266;2023-05-10T14:34:17;31.00;31.10
17687;DHT22;8962;52.538;13.266;2023-05-10T14:36:44;30.80;31.00
17687;DHT22;8962;52.538;13.266;2023-05-10T14:39:11;29.80;31.90
17687;DHT22;8962;52.538;13.266;2023-05-10T14:41:39;28.70;33.70
17687;DHT22;8962;52.538;13.266;2023-05-10T14:44:09;29.60;32.80
17687;DHT22;8962;52.538;13.266;2023-05-10T14:46:36;29.00;33.10
17687;DHT22;8962;52.538;13.266;2023-05-10T14:49:04;28.20;34.20
17687;DHT22;8962;52.538;13.266;2023-05-10T14:51:31;27.40;35.40
17687;DHT22;8962;52.538;13.266;2023-05-10T14:53:58;26.90;36.60
17687;DHT22;8962;52.538;13.266;2023-05-10T14:56:25;26.70;37.10
17687;DHT22;8962;52.538;13.266;2023-05-10T14:58:53;26.20;37.80
17687;DHT22;8962;52.538;13.266;2023-05-10T15:01:22;26.00;38.70
17687;DHT22;8962;52.538;13.266;2023-05-10T15:03:51;25.90;38.30
17687;DHT22;8962;52.538;13.266;2023-05-10T15:06:23;25.70;38.80
17687;DHT22;8962;52.538;13.266;2023-05-10T15:08:51;25.60;39.40
17687;DHT22;8962;52.538;13.266;2023-05-10T15:11:18;25.40;40.00
17687;DHT22;8962;52.538;13.266;2023-05-10T15:13:46;25.20;40.70
17687;DHT22;8962;52.538;13.266;2023-05-10T15:16:13;24.90;41.90
17687;DHT22;8962;52.538;13.266;2023-05-10T15:18:41;25.00;41.30
17687;DHT22;8962;52.538;13.266;2023-05-10T15:21:09;25.10;41.40
17687;DHT22;8962;52.538;13.266;2023-05-10T15:23:36;25.40;41.30
17687;DHT22;8962;52.538;13.266;2023-05-10T15:26:03;26.20;39.80
17687;DHT22;8962;52.538;13.266;2023-05-10T15:28:30;27.90;37.90
17687;DHT22;8962;52.538;13.266;2023-05-10T15:30:57;29.80;34.70
17687;DHT22;8962;52.538;13.266;2023-05-10T15:33:24;31.50;31.80
17687;DHT22;8962;52.538;13.266;2023-05-10T15:35:54;31.50;31.10
17687;DHT22;8962;52.538;13.266;2023-05-10T15:38:21;30.80;31.30
17687;DHT22;8962;52.538;13.266;2023-05-10T15:40:49;30.40;32.30
17687;DHT22;8962;52.538;13.266;2023-05-10T15:43:16;30.10;32.60
17687;DHT22;8962;52.538;13.266;2023-05-10T15:45:43;28.80;34.00
17687;DHT22;8962;52.538;13.266;2023-05-10T15:48:11;27.90;35.60
17687;DHT22;8962;52.538;13.266;2023-05-10T15:50:39;27.20;36.90